createdAt,value
2018-05-09T00:00:52.122Z,24.74
2018-05-09T00:03:18.244Z,24.72
2018-05-09T00:05:44.434Z,24.73
2018-05-09T00:08:10.569Z,24.73
2018-05-09T00:10:36.698Z,24.73
2018-05-09T00:13:02.864Z,24.72
2018-05-09T00:15:29.149Z,24.70
2018-05-09T00:17:55.290Z,24.67
2018-05-09T00:20:21.433Z,24.68
2018-05-09T00:22:48.085Z,24.70
2018-05-09T00:25:14.214Z,24.70
2018-05-09T00:27:40.394Z,24.70
2018-05-09T00:30:06.571Z,24.68
2018-05-09T00:32:32.865Z,24.63
2018-05-09T00:34:59.010Z,24.59
2018-05-09T00:37:25.140Z,24.57
2018-05-09T00:39:51.354Z,24.56
2018-05-09T00:42:17.485Z,24.55
2018-05-09T00:44:43.628Z,24.57
2018-05-09T00:47:09.794Z,24.59
2018-05-09T00:49:35.945Z,24.60
2018-05-09T00:52:02.226Z,24.61
2018-05-09T00:54:32.291Z,24.60
2018-05-09T00:56:58.447Z,24.59
2018-05-09T00:59:24.614Z,24.59
2018-05-09T01:01:50.754Z,24.57
2018-05-09T01:04:16.920Z,24.59
2018-05-09T01:06:43.063Z,24.56
2018-05-09T01:09:09.225Z,24.56
2018-05-09T01:11:35.360Z,24.52
2018-05-09T01:14:01.528Z,24.49
2018-05-09T01:16:27.708Z,24.47
2018-05-09T01:18:53.841Z,24.44
2018-05-09T01:21:20.029Z,24.43
2018-05-09T01:23:46.164Z,24.41
2018-05-09T01:26:12.331Z,24.39
2018-05-09T01:28:38.654Z,24.37
2018-05-09T01:31:05.137Z,24.36
2018-05-09T01:33:31.269Z,24.35
2018-05-09T01:35:57.798Z,24.34
2018-05-09T01:38:23.933Z,24.32
2018-05-09T01:40:50.056Z,24.31
2018-05-09T01:43:16.720Z,24.30
2018-05-09T01:45:42.897Z,24.28
2018-05-09T01:48:09.031Z,24.27
2018-05-09T01:50:35.318Z,24.25
2018-05-09T01:53:01.499Z,24.23
2018-05-09T01:55:27.635Z,24.20
2018-05-09T01:57:53.792Z,24.19
2018-05-09T02:00:19.949Z,24.19
2018-05-09T02:02:46.103Z,24.18
2018-05-09T02:05:12.224Z,24.17
2018-05-09T02:07:38.394Z,24.16
2018-05-09T02:10:04.527Z,24.16
2018-05-09T02:12:30.689Z,24.14
2018-05-09T02:14:57.139Z,24.14
2018-05-09T02:17:23.305Z,24.09
2018-05-09T02:19:49.440Z,24.08
2018-05-09T02:22:15.581Z,24.11
2018-05-09T02:24:41.848Z,24.13
2018-05-09T02:27:08.004Z,24.14
2018-05-09T02:29:34.166Z,24.12
2018-05-09T02:32:00.339Z,24.11
2018-05-09T02:34:26.859Z,24.10
2018-05-09T02:36:53.302Z,24.08
2018-05-09T02:39:19.434Z,24.06
2018-05-09T02:41:45.622Z,24.05
2018-05-09T02:44:12.083Z,24.06
2018-05-09T02:46:38.250Z,24.04
2018-05-09T02:49:04.741Z,24.03
2018-05-09T02:51:30.936Z,24.01
2018-05-09T02:53:57.327Z,24.01
2018-05-09T02:56:23.465Z,24.00
2018-05-09T02:58:49.633Z,24.00
2018-05-09T03:01:15.771Z,24.00
2018-05-09T03:03:41.934Z,23.98
2018-05-09T03:06:08.065Z,23.95
2018-05-09T03:08:34.712Z,23.94
2018-05-09T03:11:00.845Z,23.93
2018-05-09T03:13:26.981Z,23.92
2018-05-09T03:15:53.151Z,23.90
2018-05-09T03:18:19.282Z,23.89
2018-05-09T03:20:45.421Z,23.88
2018-05-09T03:23:11.805Z,23.87
2018-05-09T03:25:37.941Z,23.86
2018-05-09T03:28:04.138Z,23.85
2018-05-09T03:30:30.729Z,23.84
2018-05-09T03:32:56.886Z,23.82
2018-05-09T03:35:23.007Z,23.79
2018-05-09T03:37:49.268Z,23.76
2018-05-09T03:40:15.541Z,23.73
2018-05-09T03:42:41.679Z,23.69
2018-05-09T03:45:07.845Z,23.66
2018-05-09T03:47:34.014Z,23.70
2018-05-09T03:50:00.445Z,23.75
2018-05-09T03:52:26.875Z,23.78
2018-05-09T03:54:53.213Z,23.80
2018-05-09T03:57:19.359Z,23.79
2018-05-09T03:59:45.485Z,23.80
2018-05-09T04:02:24.071Z,23.81
2018-05-09T04:05:02.570Z,23.83
2018-05-09T04:07:41.106Z,23.84
2018-05-09T04:10:07.241Z,23.86
2018-05-09T04:12:33.369Z,23.84
2018-05-09T04:14:59.614Z,23.83
2018-05-09T04:17:25.767Z,23.80
2018-05-09T04:19:51.913Z,23.77
2018-05-09T04:22:18.102Z,23.76
2018-05-09T04:24:44.298Z,23.78
2018-05-09T04:27:10.977Z,23.80
2018-05-09T04:29:37.118Z,23.78
2018-05-09T04:32:03.696Z,23.81
2018-05-09T04:34:29.895Z,23.79
2018-05-09T04:36:56.021Z,23.76
2018-05-09T04:39:22.215Z,23.74
2018-05-09T04:41:48.542Z,23.72
2018-05-09T04:44:14.669Z,23.70
2018-05-09T04:46:40.802Z,23.71
2018-05-09T04:49:07.087Z,23.74
2018-05-09T04:51:33.218Z,23.79
2018-05-09T04:53:59.365Z,23.78
2018-05-09T04:56:25.577Z,23.83
2018-05-09T04:58:51.717Z,23.87
2018-05-09T05:01:17.852Z,23.91
2018-05-09T05:03:44.870Z,23.97
2018-05-09T05:06:11.000Z,24.00
2018-05-09T05:08:37.199Z,24.01
2018-05-09T05:11:03.334Z,24.01
2018-05-09T05:13:29.469Z,23.99
2018-05-09T05:15:55.668Z,24.00
2018-05-09T05:18:21.808Z,24.03
2018-05-09T05:20:47.948Z,24.05
2018-05-09T05:23:14.238Z,24.07
2018-05-09T05:25:40.421Z,24.05
2018-05-09T05:28:06.600Z,24.07
2018-05-09T05:30:32.877Z,24.10
2018-05-09T05:32:59.093Z,24.09
2018-05-09T05:35:25.238Z,24.08
2018-05-09T05:37:51.378Z,24.07
2018-05-09T05:40:17.534Z,24.08
2018-05-09T05:42:43.708Z,24.11
2018-05-09T05:45:09.975Z,24.11
2018-05-09T05:47:36.189Z,24.15
2018-05-09T05:50:02.342Z,24.15
2018-05-09T05:52:28.473Z,24.12
2018-05-09T05:54:54.657Z,24.13
2018-05-09T05:57:20.804Z,24.14
2018-05-09T05:59:46.964Z,24.18
2018-05-09T06:02:13.456Z,24.23
2018-05-09T06:04:39.855Z,24.25
2018-05-09T06:07:05.999Z,24.29
2018-05-09T06:09:32.213Z,24.34
2018-05-09T06:11:58.344Z,24.37
2018-05-09T06:14:24.486Z,24.42
2018-05-09T06:16:50.773Z,24.42
2018-05-09T06:19:16.922Z,24.43
2018-05-09T06:21:43.064Z,24.44
2018-05-09T06:24:09.331Z,24.36
2018-05-09T06:26:35.494Z,24.40
2018-05-09T06:29:01.629Z,24.42
2018-05-09T06:31:28.206Z,24.41
2018-05-09T06:33:54.346Z,24.42
2018-05-09T06:36:20.823Z,24.42
2018-05-09T06:38:47.024Z,24.38
2018-05-09T06:41:13.163Z,24.35
2018-05-09T06:43:39.343Z,24.36
2018-05-09T06:46:05.523Z,24.34
2018-05-09T06:48:31.699Z,24.37
2018-05-09T06:50:57.909Z,24.36
2018-05-09T06:53:24.163Z,24.41
2018-05-09T06:55:50.409Z,24.43
2018-05-09T06:58:16.564Z,24.43
2018-05-09T07:00:43.111Z,24.43
2018-05-09T07:03:09.343Z,24.42
2018-05-09T07:05:35.539Z,24.40
2018-05-09T07:08:01.858Z,24.42
2018-05-09T07:10:28.015Z,24.46
2018-05-09T07:12:54.143Z,24.46
2018-05-09T07:15:21.620Z,24.51
2018-05-09T07:17:47.753Z,24.53
2018-05-09T07:20:13.932Z,24.53
2018-05-09T07:22:40.514Z,24.52
2018-05-09T07:25:06.657Z,24.55
2018-05-09T07:27:32.827Z,24.57
2018-05-09T07:29:59.242Z,24.59
2018-05-09T07:32:25.648Z,24.59
2018-05-09T07:34:51.835Z,24.59
2018-05-09T07:37:18.261Z,24.57
2018-05-09T07:39:44.396Z,24.58
2018-05-09T07:42:10.703Z,24.61
2018-05-09T07:44:36.808Z,24.61
2018-05-09T07:47:02.950Z,24.63
2018-05-09T07:49:29.577Z,24.65
2018-05-09T07:51:55.768Z,24.66
2018-05-09T07:54:21.922Z,24.69
2018-05-09T07:56:48.223Z,24.70
2018-05-09T07:59:14.474Z,24.71
2018-05-09T08:01:40.612Z,24.72
2018-05-09T08:04:06.808Z,24.72
2018-05-09T08:06:32.969Z,24.73
2018-05-09T08:08:59.170Z,24.74
2018-05-09T08:11:25.347Z,24.76
2018-05-09T08:13:51.506Z,24.77
2018-05-09T08:16:17.696Z,24.78
2018-05-09T08:18:43.842Z,24.78
2018-05-09T08:21:10.027Z,24.78
2018-05-09T08:23:36.200Z,24.78
2018-05-09T08:26:02.479Z,24.79
2018-05-09T08:28:28.649Z,24.80
2018-05-09T08:30:55.086Z,24.80
2018-05-09T08:33:21.315Z,24.83
2018-05-09T08:35:47.483Z,24.84
2018-05-09T08:38:13.656Z,24.86
2018-05-09T08:40:39.891Z,24.86
2018-05-09T08:43:06.041Z,24.87
2018-05-09T08:45:32.206Z,24.91
2018-05-09T08:47:58.350Z,24.93
2018-05-09T08:50:24.905Z,24.93
2018-05-09T08:52:51.046Z,24.96
2018-05-09T08:55:17.321Z,24.96
2018-05-09T08:57:43.508Z,24.98
2018-05-09T09:00:09.778Z,24.99
2018-05-09T09:02:35.923Z,25.02
2018-05-09T09:05:02.376Z,25.04
2018-05-09T09:07:28.579Z,25.05
2018-05-09T09:09:55.092Z,25.07
2018-05-09T09:12:21.233Z,25.08
2018-05-09T09:14:47.382Z,25.10
2018-05-09T09:17:13.598Z,25.09
2018-05-09T09:19:39.823Z,25.12
2018-05-09T09:22:06.016Z,25.14
2018-05-09T09:24:32.145Z,25.15
2018-05-09T09:26:58.339Z,25.16
2018-05-09T09:29:24.503Z,25.16
2018-05-09T09:31:50.646Z,25.17
2018-05-09T09:34:16.855Z,25.20
2018-05-09T09:36:43.002Z,25.23
2018-05-09T09:39:09.232Z,25.23
2018-05-09T09:41:35.495Z,25.26
2018-05-09T09:44:01.574Z,25.28
2018-05-09T09:46:27.747Z,25.30
2018-05-09T09:48:54.045Z,25.32
2018-05-09T09:51:20.318Z,25.34
2018-05-09T09:53:46.476Z,25.37
2018-05-09T09:56:12.635Z,25.38
2018-05-09T09:58:38.824Z,25.41
2018-05-09T10:01:04.969Z,25.43
2018-05-09T10:03:31.202Z,25.45
2018-05-09T10:05:57.437Z,25.46
2018-05-09T10:08:24.034Z,25.49
2018-05-09T10:10:50.269Z,25.51
2018-05-09T10:13:16.406Z,25.52
2018-05-09T10:15:42.903Z,25.57
2018-05-09T10:18:09.797Z,25.62
2018-05-09T10:20:35.942Z,25.67
2018-05-09T10:23:02.150Z,25.71
2018-05-09T10:25:28.326Z,25.75
2018-05-09T10:27:54.608Z,25.79
2018-05-09T10:30:20.766Z,25.82
2018-05-09T10:32:47.094Z,25.79
2018-05-09T10:35:13.414Z,25.77
2018-05-09T10:37:39.714Z,25.74
2018-05-09T10:40:05.877Z,25.73
2018-05-09T10:42:32.092Z,25.72
2018-05-09T10:45:05.080Z,25.71
2018-05-09T10:47:35.938Z,25.69
2018-05-09T10:50:02.330Z,25.71
2018-05-09T10:52:28.697Z,25.72
2018-05-09T10:54:55.137Z,25.75
2018-05-09T10:57:21.352Z,25.79
2018-05-09T10:59:47.538Z,25.81
2018-05-09T11:02:13.678Z,25.84
2018-05-09T11:04:40.283Z,25.83
2018-05-09T11:07:06.472Z,25.83
2018-05-09T11:09:32.621Z,25.85
2018-05-09T11:11:58.833Z,25.91
2018-05-09T11:14:25.212Z,25.89
2018-05-09T11:16:51.360Z,25.94
2018-05-09T11:19:17.554Z,25.96
2018-05-09T11:21:44.314Z,25.97
2018-05-09T11:24:10.818Z,25.99
2018-05-09T11:26:38.658Z,25.99
2018-05-09T11:29:04.816Z,26.01
2018-05-09T11:31:31.100Z,26.01
2018-05-09T11:33:57.258Z,26.04
2018-05-09T11:36:23.770Z,26.12
2018-05-09T11:38:49.940Z,26.23
2018-05-09T11:41:16.434Z,26.33
2018-05-09T11:43:43.079Z,26.40
2018-05-09T11:46:09.237Z,26.46
2018-05-09T11:48:35.390Z,26.51
2018-05-09T11:51:01.584Z,26.56
2018-05-09T11:53:27.739Z,26.60
2018-05-09T11:55:53.873Z,26.64
2018-05-09T11:58:20.055Z,26.68
2018-05-09T12:00:46.215Z,26.73
2018-05-09T12:03:12.390Z,26.77
2018-05-09T12:05:38.554Z,26.81
2018-05-09T12:08:04.727Z,26.85
2018-05-09T12:10:31.290Z,26.89
2018-05-09T12:12:57.402Z,26.94
2018-05-09T12:15:23.553Z,26.99
2018-05-09T12:17:49.695Z,27.02
2018-05-09T12:20:15.866Z,27.06
2018-05-09T12:22:42.008Z,27.09
2018-05-09T12:25:08.179Z,27.11
2018-05-09T12:27:34.342Z,27.17
2018-05-09T12:30:00.518Z,27.20
2018-05-09T12:32:26.653Z,27.23
2018-05-09T12:34:52.982Z,27.26
2018-05-09T12:37:19.278Z,27.30
2018-05-09T12:39:45.418Z,27.34
2018-05-09T12:42:11.830Z,27.36
2018-05-09T12:44:38.510Z,27.41
2018-05-09T12:47:04.658Z,27.45
2018-05-09T12:49:30.798Z,27.48
2018-05-09T12:51:57.254Z,27.50
2018-05-09T12:54:23.400Z,27.52
2018-05-09T12:56:49.610Z,27.56
2018-05-09T12:59:15.756Z,27.60
2018-05-09T13:01:41.903Z,27.64
2018-05-09T13:04:08.094Z,27.66
2018-05-09T13:06:34.237Z,27.70
2018-05-09T13:09:00.745Z,27.72
2018-05-09T13:11:26.893Z,27.75
2018-05-09T13:13:53.048Z,27.79
2018-05-09T13:16:19.533Z,27.82
2018-05-09T13:18:45.700Z,27.85
2018-05-09T13:21:12.196Z,27.90
2018-05-09T13:23:38.680Z,27.89
2018-05-09T13:26:04.834Z,27.93
2018-05-09T13:28:30.982Z,27.96
2018-05-09T13:30:57.159Z,28.00
2018-05-09T13:33:23.647Z,27.98
2018-05-09T13:35:49.874Z,27.85
2018-05-09T13:38:16.027Z,27.81
2018-05-09T13:40:42.184Z,27.87
2018-05-09T13:43:08.379Z,27.99
2018-05-09T13:45:34.804Z,28.09
2018-05-09T13:48:00.988Z,28.15
2018-05-09T13:50:27.279Z,28.22
2018-05-09T13:52:54.799Z,28.27
2018-05-09T13:55:21.057Z,28.32
2018-05-09T13:57:47.481Z,28.36
2018-05-09T14:00:13.685Z,28.39
2018-05-09T14:02:39.848Z,28.42
2018-05-09T14:05:06.041Z,28.45
2018-05-09T14:07:32.191Z,28.49
2018-05-09T14:09:58.492Z,28.51
2018-05-09T14:12:24.613Z,28.55
2018-05-09T14:14:50.778Z,28.60
2018-05-09T14:17:17.192Z,28.65
2018-05-09T14:19:43.370Z,28.71
2018-05-09T14:22:09.944Z,28.79
2018-05-09T14:24:36.101Z,28.89
2018-05-09T14:27:02.245Z,29.01
2018-05-09T14:29:28.430Z,29.17
2018-05-09T14:31:54.573Z,29.51
2018-05-09T14:34:20.822Z,30.58
2018-05-09T14:36:47.023Z,32.05
2018-05-09T14:39:13.480Z,32.95
2018-05-09T14:41:39.790Z,33.43
2018-05-09T14:44:05.956Z,33.68
2018-05-09T14:46:32.125Z,33.87
2018-05-09T14:48:58.311Z,33.99
2018-05-09T14:51:24.541Z,34.09
2018-05-09T14:53:50.807Z,34.16
2018-05-09T14:56:17.178Z,34.23
2018-05-09T14:58:43.326Z,34.13
2018-05-09T15:01:09.494Z,34.00
2018-05-09T15:03:35.809Z,33.35
2018-05-09T15:06:02.218Z,32.47
2018-05-09T15:08:28.654Z,31.75
2018-05-09T15:10:55.089Z,31.13
2018-05-09T15:13:21.258Z,30.56
2018-05-09T15:15:47.543Z,30.09
2018-05-09T15:18:13.689Z,29.93
2018-05-09T15:20:39.853Z,30.32
2018-05-09T15:23:06.069Z,30.72
2018-05-09T15:25:32.241Z,30.68
2018-05-09T15:27:58.667Z,30.56
2018-05-09T15:30:24.851Z,30.73
2018-05-09T15:32:51.052Z,31.05
2018-05-09T15:35:17.221Z,31.05
2018-05-09T15:37:43.406Z,30.87
2018-05-09T15:40:09.609Z,30.45
2018-05-09T15:42:35.818Z,30.10
2018-05-09T15:45:02.014Z,29.67
2018-05-09T15:47:28.155Z,29.36
2018-05-09T15:49:54.332Z,29.18
2018-05-09T15:52:20.586Z,29.09
2018-05-09T15:54:46.745Z,29.03
2018-05-09T15:57:12.926Z,29.05
2018-05-09T15:59:39.119Z,29.18
2018-05-09T16:02:05.321Z,29.16
2018-05-09T16:04:31.489Z,29.03
2018-05-09T16:06:57.642Z,28.93
2018-05-09T16:09:23.877Z,28.88
2018-05-09T16:11:50.986Z,28.88
2018-05-09T16:14:17.137Z,28.88
2018-05-09T16:16:43.314Z,28.85
2018-05-09T16:19:09.457Z,28.84
2018-05-09T16:21:35.801Z,28.84
2018-05-09T16:24:01.965Z,28.84
2018-05-09T16:26:28.150Z,28.84
2018-05-09T16:28:54.687Z,28.83
2018-05-09T16:31:20.835Z,28.85
2018-05-09T16:33:46.981Z,28.79
2018-05-09T16:36:13.203Z,28.77
2018-05-09T16:38:39.351Z,28.74
2018-05-09T16:41:05.773Z,28.73
2018-05-09T16:43:31.909Z,28.74
2018-05-09T16:45:58.227Z,28.76
2018-05-09T16:48:24.384Z,28.77
2018-05-09T16:50:50.852Z,28.79
2018-05-09T16:53:17.032Z,28.76
2018-05-09T16:55:43.199Z,28.78
2018-05-09T16:58:09.430Z,28.78
2018-05-09T17:00:35.819Z,28.87
2018-05-09T17:03:02.005Z,29.00
2018-05-09T17:05:28.409Z,28.98
2018-05-09T17:07:54.522Z,28.96
2018-05-09T17:10:20.687Z,28.95
2018-05-09T17:12:46.885Z,29.00
2018-05-09T17:15:13.100Z,29.05
2018-05-09T17:17:39.292Z,29.13
2018-05-09T17:20:05.443Z,29.25
2018-05-09T17:22:31.741Z,29.32
2018-05-09T17:24:57.908Z,29.35
2018-05-09T17:27:24.196Z,29.38
2018-05-09T17:29:50.383Z,29.39
2018-05-09T17:32:16.525Z,29.39
2018-05-09T17:34:42.710Z,29.40
2018-05-09T17:37:08.868Z,29.39
2018-05-09T17:39:35.052Z,29.35
2018-05-09T17:42:01.362Z,29.29
2018-05-09T17:44:27.528Z,29.26
2018-05-09T17:46:53.699Z,29.24
2018-05-09T17:49:19.980Z,29.18
2018-05-09T17:51:46.479Z,29.15
2018-05-09T17:54:12.623Z,29.09
2018-05-09T17:56:38.810Z,29.07
2018-05-09T17:59:05.098Z,29.05
2018-05-09T18:01:31.289Z,28.99
2018-05-09T18:03:57.503Z,28.88
2018-05-09T18:06:23.734Z,28.79
2018-05-09T18:08:49.878Z,28.73
2018-05-09T18:11:16.095Z,28.66
2018-05-09T18:13:42.391Z,28.60
2018-05-09T18:16:08.646Z,28.55
2018-05-09T18:18:34.797Z,28.47
2018-05-09T18:21:01.075Z,28.38
2018-05-09T18:23:27.242Z,28.30
2018-05-09T18:25:53.510Z,28.23
2018-05-09T18:28:19.962Z,28.18
2018-05-09T18:30:46.116Z,28.12
2018-05-09T18:33:12.303Z,28.07
2018-05-09T18:35:38.573Z,28.03
2018-05-09T18:38:04.733Z,27.99
2018-05-09T18:40:31.251Z,27.94
2018-05-09T18:42:57.457Z,27.92
2018-05-09T18:45:23.636Z,27.93
2018-05-09T18:47:49.837Z,27.93
2018-05-09T18:50:15.993Z,27.91
2018-05-09T18:52:42.132Z,27.83
2018-05-09T18:55:08.430Z,27.77
2018-05-09T18:57:34.574Z,27.81
2018-05-09T19:00:01.043Z,27.87
2018-05-09T19:02:27.500Z,27.91
2018-05-09T19:04:53.666Z,27.92
2018-05-09T19:07:20.114Z,27.93
2018-05-09T19:09:46.316Z,27.93
2018-05-09T19:12:12.731Z,27.92
2018-05-09T19:14:38.890Z,27.89
2018-05-09T19:17:05.030Z,27.86
2018-05-09T19:19:31.206Z,27.84
2018-05-09T19:21:57.362Z,27.82
2018-05-09T19:24:23.533Z,27.80
2018-05-09T19:26:49.681Z,27.77
2018-05-09T19:29:15.958Z,27.73
2018-05-09T19:31:42.093Z,27.71
2018-05-09T19:34:08.245Z,27.68
2018-05-09T19:36:34.449Z,27.66
2018-05-09T19:39:00.636Z,27.64
2018-05-09T19:41:26.873Z,27.61
2018-05-09T19:43:53.216Z,27.57
2018-05-09T19:46:19.743Z,27.53
2018-05-09T19:48:45.941Z,27.49
2018-05-09T19:51:12.125Z,27.46
2018-05-09T19:53:38.633Z,27.42
2018-05-09T19:56:04.792Z,27.38
2018-05-09T19:58:30.930Z,27.35
2018-05-09T20:00:57.103Z,27.31
2018-05-09T20:03:23.233Z,27.26
2018-05-09T20:05:49.405Z,27.24
2018-05-09T20:08:15.579Z,27.21
2018-05-09T20:10:41.726Z,27.17
2018-05-09T20:13:08.216Z,27.15
2018-05-09T20:15:34.344Z,27.11
2018-05-09T20:18:00.522Z,27.08
2018-05-09T20:20:27.105Z,27.05
2018-05-09T20:22:53.305Z,27.02
2018-05-09T20:25:19.416Z,26.99
2018-05-09T20:27:45.590Z,26.95
2018-05-09T20:30:17.886Z,26.91
2018-05-09T20:32:44.055Z,26.89
2018-05-09T20:35:10.242Z,26.86
2018-05-09T20:37:36.533Z,26.84
2018-05-09T20:40:02.712Z,26.81
2018-05-09T20:42:28.851Z,26.77
2018-05-09T20:44:55.375Z,26.75
2018-05-09T20:47:21.514Z,26.72
2018-05-09T20:49:47.650Z,26.68
2018-05-09T20:52:13.828Z,26.67
2018-05-09T20:54:39.979Z,26.64
2018-05-09T20:57:06.264Z,26.62
2018-05-09T20:59:32.422Z,26.60
2018-05-09T21:01:58.557Z,26.57
2018-05-09T21:04:24.799Z,26.55
2018-05-09T21:06:51.279Z,26.53
2018-05-09T21:09:17.517Z,26.51
2018-05-09T21:11:49.812Z,26.49
2018-05-09T21:14:16.088Z,26.48
2018-05-09T21:16:42.233Z,26.46
2018-05-09T21:19:08.375Z,26.44
2018-05-09T21:21:34.546Z,26.42
2018-05-09T21:24:00.690Z,26.41
2018-05-09T21:26:26.818Z,26.39
2018-05-09T21:28:53.305Z,26.37
2018-05-09T21:31:19.432Z,26.35
2018-05-09T21:33:45.593Z,26.34
2018-05-09T21:36:11.769Z,26.33
2018-05-09T21:38:37.984Z,26.31
2018-05-09T21:41:04.397Z,26.29
2018-05-09T21:43:30.537Z,26.28
2018-05-09T21:45:56.705Z,26.26
2018-05-09T21:48:22.840Z,26.25
2018-05-09T21:50:49.114Z,26.23
2018-05-09T21:53:15.246Z,26.23
2018-05-09T21:55:41.374Z,26.21
2018-05-09T21:58:07.545Z,26.19
2018-05-09T22:00:33.685Z,26.18
2018-05-09T22:03:00.218Z,26.17
2018-05-09T22:05:26.353Z,26.15
2018-05-09T22:07:52.499Z,26.14
2018-05-09T22:10:18.770Z,26.12
2018-05-09T22:12:44.912Z,26.11
2018-05-09T22:15:11.288Z,26.10
2018-05-09T22:17:38.002Z,26.09
2018-05-09T22:20:04.138Z,26.08
2018-05-09T22:22:30.282Z,26.07
2018-05-09T22:24:56.601Z,26.05
2018-05-09T22:27:22.765Z,26.05
2018-05-09T22:29:48.904Z,26.03
2018-05-09T22:32:15.074Z,26.02
2018-05-09T22:34:41.226Z,26.01
2018-05-09T22:37:07.473Z,26.01
2018-05-09T22:39:33.984Z,26.00
2018-05-09T22:42:00.346Z,25.99
2018-05-09T22:44:26.505Z,25.98
2018-05-09T22:46:52.690Z,25.97
2018-05-09T22:49:18.829Z,25.95
2018-05-09T22:51:45.015Z,25.94
2018-05-09T22:54:11.152Z,25.94
2018-05-09T22:56:37.349Z,25.93
2018-05-09T22:59:03.719Z,25.92
2018-05-09T23:01:29.866Z,25.90
2018-05-09T23:03:56.131Z,25.89
2018-05-09T23:06:22.268Z,25.89
2018-05-09T23:08:48.400Z,25.87
2018-05-09T23:11:14.619Z,25.86
2018-05-09T23:13:40.753Z,25.84
2018-05-09T23:16:06.890Z,25.83
2018-05-09T23:18:33.072Z,25.83
2018-05-09T23:20:59.577Z,25.80
2018-05-09T23:23:25.716Z,25.80
2018-05-09T23:25:51.845Z,25.79
2018-05-09T23:28:18.242Z,25.78
2018-05-09T23:30:44.365Z,25.76
2018-05-09T23:33:10.574Z,25.75
2018-05-09T23:35:36.705Z,25.74
2018-05-09T23:38:02.849Z,25.73
2018-05-09T23:40:29.142Z,25.72
2018-05-09T23:42:55.316Z,25.71
2018-05-09T23:45:21.474Z,25.70
2018-05-09T23:47:47.614Z,25.68
2018-05-09T23:50:13.814Z,25.67
2018-05-09T23:52:39.955Z,25.67
2018-05-09T23:55:06.095Z,25.64
2018-05-09T23:57:32.262Z,25.63
2018-05-09T23:59:58.389Z,25.62
